Time;durP1;ratioP1;P1;durP2;ratioP2;P2;SDS_P1;SDS_P2;PMS_P1;PMS_P2;Temp;Humidity;BMP_temperature;BMP_pressure;BME280_temperature;BME280_humidity;BME280_pressure;Samples;Min_cycle;Max_cycle;Signal;HPM_P1;HPM_P2
2022/11/03 00:00:04;;;;;;;17.10;3.40;;;7.70;99.90;;;;;;5042438;28;20495;-46
2022/11/03 00:02:30;;;;;;;7.32;2.88;;;7.90;99.90;;;;;;5031435;28;20241;-47
2022/11/03 00:04:55;;;;;;;14.10;2.95;;;8.00;99.90;;;;;;5031713;28;20451;-47
2022/11/03 00:07:21;;;;;;;14.20;3.10;;;8.00;99.90;;;;;;5031821;28;20071;-45
2022/11/03 00:09:47;;;;;;;5.72;2.60;;;8.10;99.90;;;;;;5031875;28;20039;-45
2022/11/03 00:12:13;;;;;;;9.00;2.70;;;8.10;99.90;;;;;;5031175;28;20091;-48
2022/11/03 00:14:38;;;;;;;9.07;3.00;;;8.10;99.90;;;;;;5031933;28;20037;-46
2022/11/03 00:17:04;;;;;;;8.30;2.83;;;8.10;99.90;;;;;;5031548;28;20026;-47
2022/11/03 00:19:29;;;;;;;10.55;2.67;;;8.00;99.90;;;;;;5031639;28;20120;-46
2022/11/03 00:21:57;;;;;;;7.43;2.78;;;8.00;99.90;;;;;;5031424;28;20261;-45
2022/11/03 00:24:22;;;;;;;11.10;2.42;;;7.90;99.90;;;;;;5031745;28;20079;-45
2022/11/03 00:26:48;;;;;;;8.40;2.65;;;7.80;99.90;;;;;;5031513;28;20026;-47
2022/11/03 00:29:14;;;;;;;11.00;2.92;;;7.70;99.90;;;;;;5041608;28;20021;-44
2022/11/03 00:31:42;;;;;;;6.75;2.33;;;7.60;99.90;;;;;;5050639;28;20029;-45
2022/11/03 00:34:08;;;;;;;10.45;3.67;;;7.50;99.90;;;;;;5050876;28;20090;-45
2022/11/03 00:36:39;;;;;;;7.35;2.85;;;7.40;99.90;;;;;;5046783;28;20021;-44
2022/11/03 00:39:05;;;;;;;8.43;2.97;;;7.40;99.90;;;;;;5039284;28;20179;-45
2022/11/03 00:41:31;;;;;;;6.20;2.33;;;7.40;99.90;;;;;;5051112;28;20108;-45
2022/11/03 00:43:56;;;;;;;8.77;2.53;;;7.40;99.90;;;;;;5051039;28;20104;-45
2022/11/03 00:46:23;;;;;;;10.27;2.85;;;7.40;99.90;;;;;;5051494;28;20101;-46
2022/11/03 00:48:49;;;;;;;7.55;2.47;;;7.30;99.90;;;;;;5050910;28;20107;-45
2022/11/03 00:51:17;;;;;;;10.45;2.70;;;7.30;99.90;;;;;;5050701;28;20455;-45
2022/11/03 00:53:53;;;;;;;8.90;2.70;;;7.20;99.90;;;;;;5050845;28;20028;-45
2022/11/03 00:56:30;;;;;;;5.18;2.70;;;7.20;99.90;;;;;;5020807;28;20337;-45
2022/11/03 00:59:00;;;;;;;7.70;3.33;;;7.20;99.90;;;;;;5029231;28;20132;-45
2022/11/03 01:01:30;;;;;;;11.80;2.90;;;7.20;99.90;;;;;;5048036;28;20041;-45
2022/11/03 01:06:49;;;;;;;9.55;2.63;;;7.20;99.90;;;;;;5050909;28;20040;-45
2022/11/03 01:09:37;;;;;;;9.93;3.13;;;7.20;99.90;;;;;;5050673;28;20032;-45
2022/11/03 01:12:08;;;;;;;16.73;3.72;;;7.20;99.90;;;;;;5032371;28;20100;-45
2022/11/03 01:14:52;;;;;;;6.72;2.42;;;7.20;99.90;;;;;;5033103;28;20482;-45
2022/11/03 01:17:23;;;;;;;8.48;2.53;;;7.20;99.90;;;;;;5050795;28;20043;-45
2022/11/03 01:19:49;;;;;;;12.63;5.25;;;7.20;99.90;;;;;;5050411;28;20444;-46
2022/11/03 01:22:15;;;;;;;11.07;3.40;;;7.20;99.90;;;;;;5050213;28;20025;-45
2022/11/03 01:24:41;;;;;;;18.73;3.25;;;7.20;99.90;;;;;;5050398;28;20029;-45
2022/11/03 01:27:17;;;;;;;14.93;3.58;;;7.20;99.90;;;;;;5050331;28;20090;-45
2022/11/03 01:29:43;;;;;;;15.23;2.80;;;7.30;99.90;;;;;;5050930;28;20033;-49
2022/11/03 01:32:08;;;;;;;9.63;2.88;;;7.30;99.90;;;;;;5046630;28;20552;-45
2022/11/03 01:34:34;;;;;;;9.55;2.30;;;7.30;99.90;;;;;;5043780;28;20036;-45
2022/11/03 01:37:00;;;;;;;12.23;2.65;;;7.30;99.90;;;;;;5050171;28;20037;-45
2022/11/03 01:39:26;;;;;;;10.90;2.92;;;7.30;99.90;;;;;;5049849;28;20036;-45
2022/11/03 01:41:52;;;;;;;15.00;3.33;;;7.30;99.90;;;;;;5049242;28;20025;-48
2022/11/03 01:44:17;;;;;;;9.38;2.80;;;7.30;99.90;;;;;;5031956;28;20313;-45
2022/11/03 01:46:58;;;;;;;10.95;3.00;;;7.30;99.90;;;;;;5048802;28;20024;-45
2022/11/03 01:49:42;;;;;;;7.90;2.33;;;7.30;99.90;;;;;;5049782;28;20112;-46
2022/11/03 01:52:32;;;;;;;9.80;2.78;;;7.30;99.90;;;;;;5031875;28;20428;-45
2022/11/03 01:55:03;;;;;;;8.32;2.38;;;7.40;99.90;;;;;;5049189;28;20041;-46
2022/11/03 01:57:33;;;;;;;;;;;7.40;99.90;;;;;;5047040;28;20045;-45
2022/11/03 02:00:00;;;;;;;11.27;2.33;;;7.40;99.90;;;;;;5041033;28;19909;-47
2022/11/03 02:02:26;;;;;;;8.32;2.80;;;7.40;99.90;;;;;;5049068;28;20024;-45
2022/11/03 02:04:53;;;;;;;6.82;2.60;;;7.50;99.90;;;;;;5049658;28;20467;-45
2022/11/03 02:07:25;;;;;;;9.73;2.58;;;7.60;99.90;;;;;;5043223;28;20025;-44
2022/11/03 02:09:50;;;;;;;9.57;2.70;;;7.70;99.90;;;;;;5045191;28;20031;-44
2022/11/03 02:12:18;;;;;;;11.60;2.90;;;7.70;99.90;;;;;;5040191;28;20029;-46
2022/11/03 02:14:58;;;;;;;16.58;2.45;;;7.80;99.90;;;;;;5040744;28;20116;-45
2022/11/03 02:17:26;;;;;;;7.45;2.90;;;7.90;99.90;;;;;;5049231;28;20473;-45
2022/11/03 02:20:09;;;;;;;10.05;2.58;;;8.00;99.90;;;;;;5049451;28;20031;-45
2022/11/03 02:22:56;;;;;;;9.32;2.75;;;8.00;99.90;;;;;;5048425;28;20028;-45
2022/11/03 02:25:34;;;;;;;9.77;2.80;;;8.00;99.90;;;;;;5049266;28;20029;-45
2022/11/03 02:27:59;;;;;;;10.40;2.70;;;8.10;99.90;;;;;;5049297;28;20021;-45
2022/11/03 02:30:31;;;;;;;11.00;3.10;;;8.10;99.90;;;;;;5049118;28;20031;-45
2022/11/03 02:33:03;;;;;;;7.28;2.63;;;8.10;99.90;;;;;;5049096;28;20478;-45
2022/11/03 02:35:45;;;;;;;12.10;2.83;;;8.10;99.90;;;;;;5048926;28;20120;-46
2022/11/03 02:38:14;;;;;;;8.13;2.30;;;8.10;99.90;;;;;;5049162;28;20114;-45
2022/11/03 02:40:45;;;;;;;10.60;3.05;;;8.00;99.90;;;;;;5048839;28;20474;-45
2022/11/03 02:43:11;;;;;;;;;;;8.10;99.90;;;;;;5038617;28;20071;-45
2022/11/03 02:45:38;;;;;;;13.20;2.55;;;8.00;99.90;;;;;;5042553;28;20000;-45
2022/11/03 02:48:05;;;;;;;9.23;2.65;;;8.00;99.90;;;;;;5048721;28;20017;-46
2022/11/03 02:50:33;;;;;;;8.02;3.08;;;8.00;99.90;;;;;;5048703;28;20098;-45
2022/11/03 02:52:59;;;;;;;13.93;2.63;;;8.00;99.90;;;;;;5047946;28;20394;-45
2022/11/03 02:55:56;;;;;;;14.82;2.97;;;8.00;99.90;;;;;;5030989;28;20131;-46
2022/11/03 02:58:51;;;;;;;8.10;2.45;;;8.00;99.90;;;;;;5042522;28;20033;-46
2022/11/03 03:01:19;;;;;;;12.48;2.75;;;7.90;99.90;;;;;;4998066;28;20049;-48
2022/11/03 03:03:48;;;;;;;12.70;3.03;;;7.90;99.90;;;;;;5027248;28;20034;-46
2022/11/03 03:06:38;;;;;;;7.50;3.03;;;7.90;99.90;;;;;;5028494;28;20055;-45
2022/11/03 03:09:07;;;;;;;16.25;2.28;;;7.90;99.90;;;;;;5028669;28;20029;-46
2022/11/03 03:11:35;;;;;;;11.90;3.45;;;8.00;99.90;;;;;;5027984;28;20018;-46
2022/11/03 03:14:21;;;;;;;9.18;2.20;;;8.00;99.90;;;;;;5028246;28;20021;-46
2022/11/03 03:17:04;;;;;;;11.35;2.78;;;8.00;99.90;;;;;;5028611;28;20053;-46
2022/11/03 03:19:37;;;;;;;12.32;2.92;;;8.10;99.90;;;;;;5028312;28;20095;-45
2022/11/03 03:22:10;;;;;;;12.50;2.58;;;8.10;99.90;;;;;;5028079;28;20028;-47
2022/11/03 03:24:44;;;;;;;13.40;3.15;;;8.10;99.90;;;;;;5028974;28;20481;-47
2022/11/03 03:27:13;;;;;;;8.82;2.33;;;8.00;99.90;;;;;;5029915;28;20029;-46
2022/11/03 03:29:46;;;;;;;6.25;2.55;;;8.00;99.90;;;;;;5039677;28;20450;-44
2022/11/03 03:32:14;;;;;;;13.35;3.22;;;8.10;99.90;;;;;;5047849;28;20470;-45
2022/11/03 03:34:42;;;;;;;11.50;2.60;;;8.00;99.90;;;;;;5048408;28;20051;-45
2022/11/03 03:37:09;;;;;;;15.32;3.03;;;8.00;99.90;;;;;;5048046;28;20730;-45
2022/11/03 03:39:37;;;;;;;7.47;2.55;;;8.00;99.90;;;;;;5048177;28;20037;-46
2022/11/03 03:42:06;;;;;;;9.48;2.47;;;8.00;99.90;;;;;;5047379;28;20122;-45
2022/11/03 03:44:33;;;;;;;9.38;2.55;;;7.90;99.90;;;;;;5048062;28;20021;-45
2022/11/03 03:47:03;;;;;;;8.38;2.20;;;8.00;99.90;;;;;;5048211;28;20064;-45
2022/11/03 03:49:28;;;;;;;8.98;2.45;;;7.90;99.90;;;;;;5030480;28;20036;-45
2022/11/03 03:51:54;;;;;;;11.43;2.55;;;7.90;99.90;;;;;;5047797;28;20029;-46
2022/11/03 03:54:19;;;;;;;9.18;2.78;;;7.90;99.90;;;;;;5048257;28;20041;-45
2022/11/03 03:56:50;;;;;;;7.88;3.10;;;7.90;99.90;;;;;;5048203;28;20406;-46
2022/11/03 03:59:16;;;;;;;11.70;2.47;;;7.90;99.90;;;;;;5038522;28;20207;-45
2022/11/03 04:01:41;;;;;;;6.45;2.42;;;7.90;99.90;;;;;;5047028;28;20466;-45
2022/11/03 04:04:07;;;;;;;9.85;2.90;;;7.90;99.90;;;;;;5047857;28;20094;-45
2022/11/03 04:06:32;;;;;;;11.52;3.13;;;7.90;99.90;;;;;;5048368;28;20021;-45
2022/11/03 04:08:58;;;;;;;9.15;2.75;;;7.90;99.90;;;;;;5047652;28;20056;-45
2022/11/03 04:22:55;;;;;;;7.28;2.33;;;8.10;99.90;;;;;;5043215;28;20094;-45
2022/11/03 04:25:20;;;;;;;5.30;1.90;;;8.20;99.90;;;;;;5051120;28;20029;-45
2022/11/03 04:27:46;;;;;;;12.68;2.60;;;8.30;99.90;;;;;;5050020;28;20028;-46
2022/11/03 04:30:15;;;;;;;11.15;2.30;;;8.30;99.90;;;;;;5042908;28;20021;-45
2022/11/03 04:32:45;;;;;;;13.23;2.97;;;8.30;99.90;;;;;;5050640;28;20120;-45
2022/11/03 04:35:18;;;;;;;10.35;2.67;;;8.40;99.90;;;;;;5050846;28;20119;-45
2022/11/03 04:37:47;;;;;;;11.57;2.38;;;8.40;99.90;;;;;;5050936;28;20389;-45
2022/11/03 04:40:15;;;;;;;8.38;1.90;;;8.40;99.90;;;;;;5051025;28;20486;-45
2022/11/03 04:42:41;;;;;;;12.15;3.13;;;8.40;99.90;;;;;;5050138;28;20092;-45
2022/11/03 04:45:22;;;;;;;12.57;2.78;;;8.50;99.90;;;;;;5028033;28;20040;-45
2022/11/03 04:47:48;;;;;;;13.60;2.60;;;8.50;99.90;;;;;;5020497;28;20026;-46
2022/11/03 04:50:18;;;;;;;10.52;2.28;;;8.50;99.90;;;;;;5021407;28;20056;-44
2022/11/03 04:52:43;;;;;;;12.18;3.08;;;8.60;99.90;;;;;;5021016;28;20025;-45
2022/11/03 04:55:15;;;;;;;9.75;2.63;;;8.50;99.90;;;;;;5025028;28;20444;-45
2022/11/03 04:57:41;;;;;;;9.65;2.38;;;8.60;99.90;;;;;;5027320;28;20407;-45
2022/11/03 05:00:16;;;;;;;7.75;2.47;;;8.60;99.90;;;;;;5020957;28;20022;-44
2022/11/03 05:02:44;;;;;;;16.35;2.75;;;8.50;99.90;;;;;;5020406;28;20018;-45
2022/11/03 05:05:21;;;;;;;11.57;2.70;;;8.60;99.90;;;;;;5009864;28;20018;-45
2022/11/03 05:07:50;;;;;;;9.52;2.15;;;8.60;99.90;;;;;;5021114;28;20025;-46
2022/11/03 05:10:19;;;;;;;11.65;2.75;;;8.60;99.90;;;;;;5019391;28;20026;-45
2022/11/03 05:12:46;;;;;;;10.18;2.35;;;8.60;99.90;;;;;;5010403;28;20171;-44
2022/11/03 05:15:33;;;;;;;9.50;3.22;;;8.70;99.90;;;;;;5021283;28;20257;-45
2022/11/03 05:18:00;;;;;;;9.70;2.58;;;8.70;99.90;;;;;;5019731;28;20022;-44
2022/11/03 05:20:31;;;;;;;14.27;2.97;;;8.70;99.90;;;;;;5019634;28;20487;-45
2022/11/03 05:22:56;;;;;;;;;;;8.70;99.90;;;;;;4997754;28;20132;-46
2022/11/03 05:25:46;;;;;;;11.60;3.17;;;8.70;99.90;;;;;;5023543;28;20425;-47
2022/11/03 05:28:21;;;;;;;9.57;2.55;;;8.70;99.90;;;;;;5027010;28;20030;-45
2022/11/03 05:30:48;;;;;;;8.10;2.15;;;8.80;99.90;;;;;;5018828;28;20029;-45
2022/11/03 05:33:18;;;;;;;16.10;3.40;;;8.80;99.90;;;;;;5019503;28;20469;-46
2022/11/03 05:35:43;;;;;;;9.27;3.13;;;8.80;99.90;;;;;;5018604;28;20009;-46
2022/11/03 05:38:14;;;;;;;14.05;2.83;;;8.80;99.90;;;;;;5018985;28;20059;-45
2022/11/03 05:40:40;;;;;;;13.45;2.95;;;8.80;99.90;;;;;;5020363;28;20056;-44
2022/11/03 05:43:08;;;;;;;11.95;3.38;;;8.80;99.90;;;;;;5017828;28;20084;-47
2022/11/03 05:45:36;;;;;;;15.00;3.40;;;8.90;99.90;;;;;;5018151;28;20483;-44
2022/11/03 05:48:09;;;;;;;8.40;2.47;;;8.90;99.90;;;;;;5020317;28;20036;-45
2022/11/03 05:50:34;;;;;;;13.93;2.88;;;8.90;99.90;;;;;;5020651;28;20057;-45
2022/11/03 05:53:23;;;;;;;12.27;4.00;;;8.90;99.90;;;;;;5014751;28;20502;-44
2022/11/03 05:55:48;;;;;;;15.32;2.90;;;8.90;99.90;;;;;;5018589;28;20483;-45
2022/11/03 05:58:23;;;;;;;10.88;2.55;;;8.90;99.90;;;;;;5020748;28;20045;-45
2022/11/03 06:00:49;;;;;;;15.60;3.22;;;8.90;99.90;;;;;;5041332;28;20056;-45
2022/11/03 06:03:24;;;;;;;8.93;3.45;;;8.80;99.90;;;;;;5023064;28;20072;-45
2022/11/03 06:05:50;;;;;;;12.52;3.15;;;8.80;99.90;;;;;;5018715;28;20026;-45
2022/11/03 06:08:32;;;;;;;12.82;2.50;;;8.70;99.90;;;;;;5020436;28;20048;-45
2022/11/03 06:10:58;;;;;;;10.02;2.60;;;8.80;99.90;;;;;;5000551;28;20030;-44
2022/11/03 06:13:36;;;;;;;11.15;3.63;;;8.80;99.90;;;;;;5002055;28;20033;-44
2022/11/03 06:16:29;;;;;;;11.32;3.03;;;8.70;99.90;;;;;;5017672;28;20024;-45
2022/11/03 06:18:54;;;;;;;13.05;3.20;;;8.70;99.90;;;;;;5017650;28;20501;-44
2022/11/03 06:21:24;;;;;;;10.63;2.83;;;8.70;99.90;;;;;;5009252;28;20025;-44
2022/11/03 06:23:51;;;;;;;15.02;3.10;;;8.60;99.90;;;;;;5009521;28;20026;-44
2022/11/03 06:26:23;;;;;;;19.38;3.20;;;8.70;99.90;;;;;;4994204;28;20045;-44
2022/11/03 06:28:50;;;;;;;13.00;3.17;;;8.70;99.90;;;;;;5029938;28;20025;-44
2022/11/03 06:31:26;;;;;;;14.57;2.90;;;8.70;99.90;;;;;;5022295;28;20074;-44
2022/11/03 06:33:52;;;;;;;11.88;3.03;;;8.70;99.90;;;;;;5048904;28;20056;-45
2022/11/03 06:36:31;;;;;;;8.25;3.55;;;8.80;99.90;;;;;;5038899;28;20416;-45
2022/11/03 06:39:02;;;;;;;13.82;3.20;;;8.80;99.90;;;;;;5017080;28;20435;-46
2022/11/03 06:41:31;;;;;;;;;;;8.90;99.90;;;;;;5017155;28;20533;-45
2022/11/03 06:44:00;;;;;;;7.20;2.33;;;8.90;99.90;;;;;;5001555;28;20088;-45
2022/11/03 06:46:26;;;;;;;10.07;3.17;;;9.00;99.90;;;;;;5014391;28;20092;-44
2022/11/03 06:48:54;;;;;;;16.42;3.25;;;9.00;99.90;;;;;;5002407;28;20056;-48
2022/11/03 06:51:27;;;;;;;13.38;3.42;;;9.20;99.90;;;;;;5019996;28;20029;-45
2022/11/03 06:53:56;;;;;;;9.07;2.83;;;9.20;99.90;;;;;;5011328;28;20022;-45
2022/11/03 06:56:23;;;;;;;7.63;2.70;;;9.30;99.90;;;;;;5015217;28;20033;-45
2022/11/03 06:58:52;;;;;;;14.32;3.30;;;9.40;99.90;;;;;;5008354;28;20468;-45
2022/11/03 07:01:21;;;;;;;7.80;2.90;;;9.40;99.90;;;;;;5022498;28;20399;-45
2022/11/03 07:03:49;;;;;;;8.32;2.45;;;9.50;99.90;;;;;;5018184;28;20046;-45
2022/11/03 07:06:20;;;;;;;7.20;2.97;;;9.50;99.90;;;;;;5019829;28;20089;-45
2022/11/03 07:08:51;;;;;;;13.48;2.38;;;9.50;99.90;;;;;;5034785;28;20199;-44
2022/11/03 07:11:23;;;;;;;10.50;3.33;;;9.60;99.90;;;;;;5011015;28;20478;-45
2022/11/03 07:13:52;;;;;;;10.82;2.95;;;9.60;99.90;;;;;;5028554;28;20018;-47
2022/11/03 07:16:20;;;;;;;14.40;2.72;;;9.70;99.90;;;;;;5028586;28;20018;-46
2022/11/03 07:18:46;;;;;;;10.73;3.03;;;9.80;99.90;;;;;;5028399;28;20021;-47
2022/11/03 07:21:39;;;;;;;8.13;2.58;;;9.90;99.90;;;;;;5028402;28;20068;-45
2022/11/03 07:24:17;;;;;;;7.82;2.75;;;10.00;99.90;;;;;;5028394;28;20053;-45
2022/11/03 07:26:43;;;;;;;13.30;3.45;;;10.00;99.90;;;;;;5028238;28;20521;-45
2022/11/03 07:29:18;;;;;;;7.57;2.45;;;10.10;99.90;;;;;;5026902;28;20116;-47
2022/11/03 07:31:44;;;;;;;9.57;3.22;;;10.10;99.90;;;;;;5022211;28;20045;-45
2022/11/03 07:34:19;;;;;;;10.18;2.67;;;10.10;99.90;;;;;;5028469;28;20299;-45
2022/11/03 07:36:45;;;;;;;8.00;2.70;;;10.20;99.90;;;;;;5028309;28;20534;-49
2022/11/03 07:39:16;;;;;;;11.27;2.55;;;10.20;99.90;;;;;;5027941;28;20028;-48
2022/11/03 07:41:42;;;;;;;8.80;2.80;;;10.20;99.90;;;;;;5027593;28;20033;-45
2022/11/03 07:44:14;;;;;;;18.70;4.50;;;10.30;99.90;;;;;;5028098;28;20034;-45
2022/11/03 07:46:42;;;;;;;10.25;3.72;;;10.40;99.90;;;;;;5031768;28;20049;-46
2022/11/03 07:49:18;;;;;;;10.73;3.22;;;10.40;99.90;;;;;;5032193;28;20541;-46
2022/11/03 07:51:44;;;;;;;10.20;3.00;;;10.40;99.90;;;;;;5015326;28;20953;-45
2022/11/03 07:54:20;;;;;;;10.70;3.35;;;10.60;99.90;;;;;;5032085;28;20100;-46
2022/11/03 07:57:09;;;;;;;9.63;2.80;;;10.70;99.90;;;;;;5031688;28;20026;-46
2022/11/03 07:59:40;;;;;;;7.90;2.35;;;10.70;99.90;;;;;;5031713;28;20017;-46
2022/11/03 08:02:24;;;;;;;16.75;3.50;;;10.90;99.90;;;;;;5031308;28;20030;-46
2022/11/03 08:04:49;;;;;;;7.38;2.58;;;10.90;99.90;;;;;;5031670;28;20030;-45
2022/11/03 08:07:15;;;;;;;18.52;3.60;;;11.10;99.90;;;;;;5031571;28;20359;-47
2022/11/03 08:09:40;;;;;;;7.45;2.97;;;11.10;99.90;;;;;;5031829;28;20029;-46
2022/11/03 08:12:06;;;;;;;10.30;2.58;;;11.20;99.90;;;;;;5031588;28;20072;-46
2022/11/03 08:14:31;;;;;;;9.75;2.80;;;11.20;99.90;;;;;;5013766;28;20469;-45
2022/11/03 08:16:57;;;;;;;13.70;2.65;;;11.40;99.90;;;;;;5031343;28;20049;-45
2022/11/03 08:19:22;;;;;;;11.55;2.45;;;11.40;99.90;;;;;;5031137;28;20613;-47
2022/11/03 08:21:48;;;;;;;9.52;2.40;;;11.50;99.90;;;;;;5030827;28;20029;-45
2022/11/03 08:24:13;;;;;;;12.07;2.97;;;11.30;99.90;;;;;;5031316;28;20104;-45
2022/11/03 08:26:39;;;;;;;14.55;3.10;;;11.40;99.90;;;;;;5031078;28;20028;-45
2022/11/03 08:29:04;;;;;;;13.30;3.20;;;11.40;99.90;;;;;;5013179;28;20064;-45
2022/11/03 08:31:29;;;;;;;6.20;2.95;;;11.40;99.90;;;;;;5030960;28;20030;-45
2022/11/03 08:33:55;;;;;;;10.55;2.65;;;11.50;99.90;;;;;;5031306;28;20143;-46
2022/11/03 08:36:20;;;;;;;14.75;3.35;;;11.70;99.90;;;;;;5031174;28;20025;-45
2022/11/03 08:38:46;;;;;;;8.88;2.90;;;11.70;99.90;;;;;;5031360;28;20454;-46
2022/11/03 08:41:11;;;;;;;8.45;2.63;;;11.70;99.90;;;;;;5031256;28;20025;-47
2022/11/03 08:43:37;;;;;;;7.57;3.05;;;11.90;99.90;;;;;;5031012;28;20033;-45
2022/11/03 08:46:03;;;;;;;9.65;2.70;;;11.90;99.90;;;;;;5030994;28;20071;-46
2022/11/03 08:48:28;;;;;;;10.23;3.10;;;11.90;99.90;;;;;;5031152;28;20047;-44
2022/11/03 08:50:54;;;;;;;12.20;3.03;;;12.00;99.90;;;;;;5031019;28;20463;-45
2022/11/03 08:53:21;;;;;;;7.60;2.50;;;12.10;99.90;;;;;;5030594;28;20027;-45
2022/11/03 08:55:47;;;;;;;12.63;3.20;;;11.90;99.90;;;;;;5030751;28;20029;-45
2022/11/03 08:58:12;;;;;;;6.43;2.15;;;12.00;99.90;;;;;;5031017;28;20434;-44
2022/11/03 09:00:38;;;;;;;12.70;2.78;;;12.30;99.90;;;;;;5030907;28;20086;-44
2022/11/03 09:03:03;;;;;;;14.13;3.05;;;12.30;99.90;;;;;;5030384;28;20033;-44
2022/11/03 09:05:29;;;;;;;7.57;2.45;;;12.40;99.90;;;;;;5030668;28;20040;-45
2022/11/03 09:07:54;;;;;;;11.77;2.75;;;12.20;99.90;;;;;;5030295;28;20053;-44
2022/11/03 09:10:20;;;;;;;12.75;2.83;;;12.30;99.90;;;;;;5030653;28;20067;-45
2022/11/03 09:12:45;;;;;;;12.55;2.80;;;12.30;99.90;;;;;;5030203;28;20026;-44
2022/11/03 09:15:11;;;;;;;11.23;2.78;;;12.30;99.90;;;;;;5030981;28;20104;-44
2022/11/03 09:17:37;;;;;;;7.90;2.80;;;12.30;99.90;;;;;;5030513;28;20530;-44
2022/11/03 09:20:03;;;;;;;17.70;3.20;;;12.30;99.90;;;;;;5030686;28;20029;-45
2022/11/03 09:22:29;;;;;;;12.80;2.72;;;12.30;99.90;;;;;;5030060;28;20546;-45
2022/11/03 09:24:54;;;;;;;13.90;3.25;;;12.40;99.90;;;;;;5030366;28;20113;-45
2022/11/03 09:27:20;;;;;;;6.88;2.10;;;12.60;99.90;;;;;;5030321;28;20033;-45
2022/11/03 09:29:47;;;;;;;14.30;3.55;;;12.60;99.90;;;;;;5012559;28;20032;-45
2022/11/03 09:32:12;;;;;;;8.65;2.30;;;12.60;99.90;;;;;;5029854;28;20076;-44
2022/11/03 09:34:38;;;;;;;13.70;3.03;;;12.70;99.90;;;;;;5030225;28;20056;-45
2022/11/03 09:37:03;;;;;;;10.27;2.47;;;12.90;99.90;;;;;;5030444;28;20033;-44
2022/11/03 09:39:29;;;;;;;8.10;2.95;;;12.90;99.90;;;;;;5030445;28;20061;-44
2022/11/03 09:41:56;;;;;;;11.98;2.90;;;13.10;99.90;;;;;;5029604;28;20056;-44
2022/11/03 09:44:22;;;;;;;12.95;2.42;;;13.60;99.90;;;;;;5029774;28;20035;-45
2022/11/03 09:46:49;;;;;;;11.95;2.75;;;14.30;99.90;;;;;;5036089;28;20035;-45
2022/11/03 09:49:16;;;;;;;16.25;4.45;;;15.30;99.70;;;;;;5029996;28;20026;-45
2022/11/03 09:51:42;;;;;;;7.63;2.60;;;15.60;98.30;;;;;;5029410;28;20083;-45
2022/11/03 09:54:15;;;;;;;10.10;2.38;;;15.90;97.20;;;;;;5027931;28;20077;-45
2022/11/03 09:56:42;;;;;;;6.97;2.70;;;16.10;97.50;;;;;;5037907;28;20030;-45
2022/11/03 09:59:17;;;;;;;7.50;2.58;;;16.20;96.40;;;;;;5047961;28;20035;-45
2022/11/03 10:01:47;;;;;;;10.43;2.70;;;16.00;96.90;;;;;;5026361;28;20045;-45
2022/11/03 10:04:13;;;;;;;12.88;2.90;;;16.00;96.90;;;;;;5029507;28;20026;-46
2022/11/03 10:06:39;;;;;;;7.32;2.55;;;15.50;97.60;;;;;;5028177;28;20075;-46
2022/11/03 10:09:07;;;;;;;8.95;2.83;;;16.50;96.90;;;;;;5040327;28;20017;-46
2022/11/03 10:11:33;;;;;;;9.05;2.72;;;16.60;95.60;;;;;;5049221;28;20094;-46
2022/11/03 10:13:59;;;;;;;6.82;3.10;;;16.90;94.80;;;;;;5048159;28;20070;-46
2022/11/03 10:16:26;;;;;;;9.98;3.05;;;17.90;94.10;;;;;;5042009;28;20763;-46
2022/11/03 10:18:52;;;;;;;8.60;2.95;;;17.90;93.30;;;;;;5022728;28;20160;-46
2022/11/03 10:21:32;;;;;;;7.30;2.78;;;18.10;93.20;;;;;;5048117;28;20604;-46
2022/11/03 10:23:58;;;;;;;7.10;2.70;;;18.90;92.60;;;;;;5049538;28;20033;-46
2022/11/03 10:26:24;;;;;;;8.55;2.72;;;18.40;91.30;;;;;;5047964;28;20082;-46
2022/11/03 10:29:03;;;;;;;7.35;2.63;;;18.20;92.00;;;;;;5038712;28;20068;-46
2022/11/03 10:31:39;;;;;;;9.30;2.85;;;18.70;91.40;;;;;;5009191;28;20267;-46
2022/11/03 10:34:22;;;;;;;6.57;2.30;;;20.40;88.50;;;;;;5010302;28;20076;-46
2022/11/03 10:36:47;;;;;;;11.27;3.03;;;20.60;88.50;;;;;;5041024;28;20032;-46
2022/11/03 10:39:28;;;;;;;11.45;3.00;;;19.90;89.70;;;;;;5047962;28;20037;-45
2022/11/03 10:41:54;;;;;;;;;;;19.80;87.50;;;;;;5023373;28;20025;-46
2022/11/03 10:44:20;;;;;;;6.78;2.80;;;19.80;88.50;;;;;;5040301;28;19915;-46
2022/11/03 10:46:58;;;;;;;11.57;3.08;;;20.10;86.20;;;;;;5028395;28;20025;-48
2022/11/03 10:49:23;;;;;;;10.50;2.90;;;20.60;87.10;;;;;;5024077;28;20032;-46
2022/11/03 10:51:52;;;;;;;8.77;2.60;;;21.00;84.80;;;;;;5018702;28;20483;-46
2022/11/03 10:54:20;;;;;;;8.40;2.45;;;21.20;83.30;;;;;;5022827;28;20494;-46
2022/11/03 10:56:47;;;;;;;7.15;2.90;;;21.30;83.10;;;;;;5019936;28;20384;-46
2022/11/03 10:59:46;;;;;;;9.30;2.58;;;20.40;83.50;;;;;;5019923;28;20025;-46
2022/11/03 11:02:18;;;;;;;8.25;2.55;;;20.10;84.30;;;;;;5030760;28;20029;-49
2022/11/03 11:04:46;;;;;;;8.60;3.13;;;19.30;86.50;;;;;;5037092;28;20029;-45
2022/11/03 11:07:35;;;;;;;8.48;2.63;;;18.00;90.30;;;;;;5047690;28;20027;-47
2022/11/03 11:10:10;;;;;;;8.88;2.70;;;18.00;91.40;;;;;;5038694;28;20476;-46
2022/11/03 11:12:36;;;;;;;7.75;2.72;;;18.90;90.40;;;;;;5039856;28;20033;-46
2022/11/03 11:15:22;;;;;;;8.77;2.70;;;19.70;88.60;;;;;;5048290;28;20036;-46
2022/11/03 11:17:48;;;;;;;6.78;2.63;;;20.10;86.30;;;;;;5048676;28;20542;-46
2022/11/03 11:20:23;;;;;;;8.25;2.70;;;19.80;85.20;;;;;;5052087;28;20024;-46
2022/11/03 11:22:49;;;;;;;10.52;2.58;;;19.60;86.90;;;;;;5052273;28;20017;-46
2022/11/03 11:25:16;;;;;;;4.65;2.55;;;19.90;86.70;;;;;;5052818;28;20105;-46
2022/11/03 11:27:54;;;;;;;5.18;2.55;;;19.60;88.30;;;;;;5052805;28;20075;-46
2022/11/03 11:30:19;;;;;;;8.73;3.17;;;19.80;87.40;;;;;;5052309;28;20025;-48
2022/11/03 11:32:44;;;;;;;10.35;2.95;;;20.60;84.30;;;;;;5052287;28;20044;-49
2022/11/03 11:35:15;;;;;;;5.22;2.47;;;20.30;84.20;;;;;;5052640;28;20021;-46
2022/11/03 11:37:41;;;;;;;8.18;2.83;;;20.40;85.60;;;;;;5052560;28;20033;-46
2022/11/03 11:40:24;;;;;;;6.25;2.45;;;21.40;84.70;;;;;;5034571;28;20044;-47
2022/11/03 11:43:02;;;;;;;9.77;2.85;;;22.00;81.90;;;;;;5023986;28;20081;-46
2022/11/03 11:46:05;;;;;;;7.97;2.95;;;22.50;80.60;;;;;;5015780;28;20052;-45
2022/11/03 11:48:32;;;;;;;8.82;2.88;;;21.70;79.40;;;;;;5012238;28;20025;-47
2022/11/03 11:50:59;;;;;;;12.18;3.08;;;21.50;79.90;;;;;;5033096;28;20382;-46
2022/11/03 11:53:26;;;;;;;8.45;3.08;;;20.60;83.10;;;;;;5040713;28;20037;-45
2022/11/03 11:56:00;;;;;;;10.93;2.97;;;19.40;85.20;;;;;;5032477;28;20702;-45
2022/11/03 11:58:25;;;;;;;9.95;3.10;;;18.30;88.10;;;;;;5032062;28;20049;-47
2022/11/03 12:00:54;;;;;;;12.52;2.53;;;18.70;88.40;;;;;;5032171;28;20033;-45
2022/11/03 12:03:25;;;;;;;8.10;2.67;;;19.10;88.00;;;;;;5031822;28;20390;-44
2022/11/03 12:05:50;;;;;;;10.18;3.50;;;19.50;89.10;;;;;;5031779;28;20498;-45
2022/11/03 12:08:17;;;;;;;9.55;3.30;;;19.00;86.40;;;;;;5031752;28;20116;-45
2022/11/03 12:10:52;;;;;;;8.95;3.50;;;17.90;90.60;;;;;;5031619;28;20025;-45
2022/11/03 12:13:41;;;;;;;8.18;3.50;;;18.00;90.60;;;;;;5012420;28;20470;-46
2022/11/03 12:16:07;;;;;;;11.50;3.08;;;17.50;91.50;;;;;;5031320;28;20103;-45
2022/11/03 12:18:41;;;;;;;6.95;2.85;;;17.20;92.00;;;;;;5031630;28;20366;-46
2022/11/03 12:21:13;;;;;;;9.23;3.17;;;17.40;92.00;;;;;;5039624;28;20116;-46
2022/11/03 12:23:44;;;;;;;9.50;3.25;;;17.00;92.20;;;;;;5025054;28;20021;-47
2022/11/03 12:26:36;;;;;;;12.07;2.95;;;16.30;93.50;;;;;;5015224;28;20502;-46
2022/11/03 12:29:04;;;;;;;9.23;3.30;;;16.00;94.50;;;;;;5017303;28;20025;-45
2022/11/03 12:31:29;;;;;;;11.00;2.70;;;16.00;94.60;;;;;;5016458;28;20596;-45
2022/11/03 12:33:55;;;;;;;6.63;3.15;;;16.00;94.80;;;;;;5019457;28;20021;-48
2022/11/03 12:36:20;;;;;;;9.98;2.72;;;16.20;94.70;;;;;;5026285;28;20045;-45
2022/11/03 12:38:46;;;;;;;11.50;2.95;;;16.10;94.70;;;;;;5030982;28;20010;-46
2022/11/03 12:41:21;;;;;;;7.88;2.97;;;16.30;94.80;;;;;;5028125;28;20040;-46
2022/11/03 12:43:47;;;;;;;7.10;3.30;;;16.40;94.60;;;;;;5029631;28;20025;-45
2022/11/03 12:46:14;;;;;;;8.02;3.28;;;16.00;94.90;;;;;;5037910;28;20131;-45
2022/11/03 12:48:42;;;;;;;6.93;3.10;;;16.10;95.00;;;;;;5044717;28;20025;-45
2022/11/03 12:51:12;;;;;;;9.48;3.13;;;16.40;94.70;;;;;;5042385;28;20448;-47
2022/11/03 12:53:38;;;;;;;14.55;2.70;;;16.30;94.60;;;;;;5041301;28;20512;-45
2022/11/03 12:56:03;;;;;;;10.30;3.03;;;16.30;94.40;;;;;;5050695;28;20111;-46
2022/11/03 12:58:29;;;;;;;8.27;3.53;;;16.10;94.40;;;;;;5045055;28;20375;-45
2022/11/03 13:00:54;;;;;;;7.38;2.70;;;16.30;94.40;;;;;;5028951;28;20632;-45
2022/11/03 13:03:20;;;;;;;5.05;2.38;;;16.20;94.60;;;;;;5030411;28;20363;-45
2022/11/03 13:05:45;;;;;;;6.43;2.60;;;16.20;95.00;;;;;;5028533;28;20021;-45
2022/11/03 13:08:11;;;;;;;8.10;3.00;;;16.20;95.10;;;;;;5004747;28;20022;-45
2022/11/03 13:10:36;;;;;;;11.82;3.47;;;15.90;95.80;;;;;;5025184;28;20033;-46
2022/11/03 13:13:02;;;;;;;8.52;2.88;;;15.70;95.80;;;;;;5021620;28;20037;-47
2022/11/03 13:15:27;;;;;;;6.68;2.90;;;15.80;95.90;;;;;;5018372;28;20107;-45